| Pilot: | GLD1043 Marcio M. | Aircraft: | $$:Helicopter | Distance: | 50NM |
| From: | SBMI | To: | SBCB | Duration: | 0.68 |
| Validation: | Valid | Tipo: | Charter | Tail Number: | PT-GLD |
| ZFW: | 3342 | Block Fuel/Init FOB | 302flight_details.php/212 | Flight Fuel | 302 |
| Passengers: | 2 | Cargo: | 50 | Alternate: | SBRJ |
| Departure Time: | 0909 | Cruise Speed: | 0140 | Flight Level: | A010 |
| Flight Type: | VFR | Aircraft Type: | AS50 | Weight Unit: | Kg |
| Date: | 19/04/2026 | Comments: | GOLD ACARS | Network: | VATSIM |
| Crash: | No | Validator Comments: | Rating | 106.635 |
| ROUTE | REH |
| REMARKS | OPR/GOLD VIRTUAL AIRLINES PER/H RMK/FROM SBGR RMK/PIC GLD1043 |
| Crash | OK | Beacon Lights off with engine on | Fault | Speed above 250KIAS below 10.000ft | OK |
| Landing Lights OFF below 10.000ft | OK | Landing Lights ON above 10.000ft | OK | Stall | OK |
| Overspeed | OK | Pause | OK | Refuel | OK |
| Slew | OK | Taxi Lights OFF during taxi | OK | Land Lights OFF during take off | OK |
| Landing Lights OFF during landing | OK | Landed in not planned airfield | OK | Taxi speed above 25 kt | OK |
| Incorrect QNH during take off | OK | Incorrect QNH during landing | OK |
| Wind: | 249º/19 kt | Heading: | 178 |
| VS: | -14 ft/min | IAS: | 8 kt |
| Gforce: | 0.9904 G | Bank: | 0.81 |
| Pitch | 0.93 | Flaps | 0 |
| Nav Lights | OFF | Landing Lights | ON |
| Beacon Lights | OFF | Strobe Lights | OFF |
| DATE | EVENT | IAS | ALTITUDE |
|---|---|---|---|
| 2026-04-19 09:09:56 | GOLD ACARS VERSION 3.3.6.9 | 0 | 0 |
| 2026-04-19 09:09:56 | TAXI LIGHTS ON | 0 | 0 |
| 2026-04-19 09:09:56 | BOARDING | 0 | 10 |
| 2026-04-19 09:09:56 | LITTLENAVMAP ON | 0 | 10 |
| 2026-04-19 09:11:15 | TAXI LIGHTS OFF | 0 | 10 |
| 2026-04-19 09:11:16 | TAXI LIGHTS ON | 0 | 10 |
| 2026-04-19 09:11:17 | TAXI LIGHTS OFF | 0 | 10 |
| 2026-04-19 09:11:18 | LND LIGHTS ON | 0 | 10 |
| 2026-04-19 09:11:19 | TAXI LIGHTS ON | 0 | 10 |
| 2026-04-19 09:11:20 | LND LIGHTS OFF | 0 | 10 |
| 2026-04-19 09:11:21 | TAXI LIGHTS OFF | 0 | 10 |
| 2026-04-19 09:11:22 | LND LIGHTS ON | 0 | 10 |
| 2026-04-19 09:11:23 | TAXI LIGHTS ON | 0 | 10 |
| 2026-04-19 09:11:24 | LND LIGHTS OFF | 0 | 10 |
| 2026-04-19 09:11:27 | LND LIGHTS ON | 0 | 10 |
| 2026-04-19 09:11:28 | LND LIGHTS OFF | 0 | 10 |
| 2026-04-19 09:12:09 | STARTING ENGINE 1 | 0 | 10 |
| 2026-04-19 09:12:09 | BEACON LIGHT OFF & ENGINE ON | 0 | 10 |
| 2026-04-19 09:15:16 | LND LIGHTS ON | 0 | 10 |
| 2026-04-19 09:17:29 | CLIMBING | 41 | 94 |
| 2026-04-19 09:18:39 | CRUISE | 82 | 971 |
| 2026-04-19 09:19:32 | TAXI LIGHTS OFF | 106 | 987 |
| 2026-04-19 09:19:36 | TAXI LIGHTS ON | 107 | 986 |
| 2026-04-19 09:19:39 | TAXI LIGHTS OFF | 107 | 989 |
| 2026-04-19 09:35:00 | LANDING | 111 | 984 |
| 2026-04-19 09:41:46 | TAXI LIGHTS ON | 56 | 609 |
| 2026-04-19 09:41:47 | TAXI LIGHTS OFF | 56 | 608 |
| 2026-04-19 09:41:48 | TAXI LIGHTS ON | 55 | 606 |
| 2026-04-19 09:45:23 | TAXI LIGHTS OFF | 23 | 21 |
| 2026-04-19 09:46:46 | LANDED AIRPORT [SBCB] | 7 | -2 |
| 2026-04-19 09:46:46 | TAXI TO THE GATE | 7 | -2 |
| 2026-04-19 09:48:41 | TAXI LIGHTS ON | 2 | -2 |
| 2026-04-19 09:49:06 | STOPPING ENGINE 1 | 2 | -2 |
| 2026-04-19 09:50:57 | TAXI LIGHTS OFF | 2 | -2 |
| 2026-04-19 09:50:58 | FLIGHT FINISHED | 2 | -2 |
| DATE | IAS | GS | ALTITUDE | FUEL USED | OAT | Flight Phase |
|---|---|---|---|---|---|---|
| 2026-04-19 09:11:56 | 0 | 0 | 10 | 0 | 25 | BOARDING |
| 2026-04-19 09:12:56 | 0 | 0 | 10 | 1 | 25 | BOARDING |
| 2026-04-19 09:13:56 | 0 | 0 | 10 | 2 | 25 | BOARDING |
| 2026-04-19 09:14:56 | 0 | 0 | 10 | 3 | 25 | BOARDING |
| 2026-04-19 09:15:56 | 0 | 0 | 10 | 5 | 25 | BOARDING |
| 2026-04-19 09:16:56 | 4 | 2 | 18 | 7 | 25 | BOARDING |
| 2026-04-19 09:17:57 | 49 | 48 | 479 | 10 | 24 | BOARDING |
| 2026-04-19 09:18:57 | 96 | 98 | 996 | 13 | 22 | CLIMBING |
| 2026-04-19 09:19:57 | 106 | 110 | 989 | 16 | 22 | CRUISE |
| 2026-04-19 09:20:57 | 110 | 125 | 991 | 18 | 22 | CRUISE |
| 2026-04-19 09:21:57 | 107 | 121 | 989 | 21 | 22 | CRUISE |
| 2026-04-19 09:22:57 | 108 | 124 | 989 | 24 | 22 | CRUISE |
| 2026-04-19 09:23:57 | 104 | 122 | 989 | 26 | 22 | CRUISE |
| 2026-04-19 09:24:57 | 103 | 121 | 987 | 29 | 22 | CRUISE |
| 2026-04-19 09:25:58 | 101 | 117 | 989 | 32 | 22 | CRUISE |
| 2026-04-19 09:26:58 | 105 | 125 | 989 | 35 | 21 | CRUISE |
| 2026-04-19 09:27:58 | 98 | 118 | 989 | 37 | 21 | CRUISE |
| 2026-04-19 09:28:58 | 105 | 124 | 987 | 40 | 21 | CRUISE |
| 2026-04-19 09:29:58 | 104 | 127 | 989 | 43 | 21 | CRUISE |
| 2026-04-19 09:30:58 | 108 | 126 | 989 | 45 | 21 | CRUISE |
| 2026-04-19 09:31:58 | 105 | 128 | 989 | 48 | 23 | CRUISE |
| 2026-04-19 09:32:59 | 100 | 129 | 992 | 51 | 23 | CRUISE |
| 2026-04-19 09:33:59 | 109 | 130 | 988 | 54 | 23 | CRUISE |
| 2026-04-19 09:34:59 | 112 | 130 | 988 | 56 | 23 | CRUISE |
| 2026-04-19 09:35:59 | 114 | 130 | 812 | 59 | 23 | CRUISE |
| 2026-04-19 09:36:59 | 111 | 122 | 818 | 62 | 23 | LANDING |
| 2026-04-19 09:38:00 | 113 | 133 | 822 | 65 | 23 | LANDING |
| 2026-04-19 09:39:00 | 113 | 139 | 774 | 67 | 23 | LANDING |
| 2026-04-19 09:40:00 | 106 | 122 | 676 | 70 | 23 | LANDING |
| 2026-04-19 09:41:00 | 85 | 96 | 598 | 72 | 24 | LANDING |
| 2026-04-19 09:42:00 | 53 | 65 | 561 | 74 | 24 | LANDING |
| 2026-04-19 09:43:00 | 54 | 37 | 212 | 76 | 25 | LANDING |
| 2026-04-19 09:44:01 | 32 | 16 | 39 | 79 | 25 | LANDING |
| 2026-04-19 09:45:01 | 26 | 10 | 20 | 81 | 25 | LANDING |
| 2026-04-19 09:46:01 | 2 | 6 | 4 | 83 | 25 | LANDING |
| 2026-04-19 09:47:01 | 7 | 1 | -2 | 85 | 25 | LANDING |
| 2026-04-19 09:48:01 | 4 | 1 | 6 | 88 | 25 | TAXI TO THE GATE |
| 2026-04-19 09:49:01 | 2 | 0 | -2 | 90 | 25 | TAXI TO THE GATE |
| 2026-04-19 09:50:01 | 2 | 0 | -2 | 90 | 25 | TAXI TO THE GATE |